Home   Weather   USA   Braselton   Past weeks
Flag for USA

Past Weather in Braselton, Georgia, USA — Yesterday and Last 2 Weeks

Currently: 73 °F. Passing clouds. (Weather station: Winder-Barrow Airport, USA). See more current weather

Past Weather in Braselton — Graph

°F

Braselton Temperature Yesterday

Maximum temperature yesterday: 86 °F (at 6:35 pm)
Minimum temperature yesterday: 68 °F (at 5:15 am)
Average temperature yesterday: 75 °F

High & Low Weather Summary for the Past Weeks

 TemperatureHumidityPressure
High90 °F (Jun 12, 4:55 pm)100% (Jun 3, 5:35 am)30.36 "Hg (Jun 3, 5:35 am)
Low54 °F (May 30, 6:35 am)40% (Jun 3, 4:55 pm)29.78 "Hg (Jun 12, 4:35 pm)
Average73 °F76%30.09 "Hg
* Reported May 30 1:15 am — Jun 14 1:55 am, Braselton. Weather by CustomWeather, © 2021

Note: Actual official high and low records may vary slightly from our data, if they occured in-between our weather recording intervals... More about our weather records

Braselton Weather History for the Previous 24 Hours

Scroll right to see more
 ConditionsComfort  
Time TempWeatherWind HumidityBarometerVisibility
1:55 am
Mon, Jun 14
73 °FOvercast.No wind83%29.95 "Hg10 mi
1:15 am73 °FPassing clouds.No wind83%29.94 "Hg10 mi
12:55 am73 °FOvercast.No wind83%29.95 "Hg10 mi
12:35 am73 °FMostly cloudy.No wind83%29.95 "Hg10 mi
11:35 pm
Sun, Jun 13
73 °FPartly cloudy.No wind83%29.96 "Hg10 mi
11:15 pm75 °FPartly cloudy.No wind78%29.97 "Hg10 mi
10:55 pm75 °FPassing clouds.No wind78%29.97 "Hg10 mi
10:35 pm73 °FClear.5 mph89%29.96 "Hg10 mi
10:15 pm75 °FClear.3 mph83%29.95 "Hg10 mi
9:55 pm75 °FClear.No wind83%29.94 "Hg10 mi
9:35 pm77 °FClear.No wind79%29.93 "Hg10 mi
8:55 pm79 °FClear.No wind74%29.92 "Hg10 mi
8:15 pm81 °FSunny.No wind70%29.91 "Hg10 mi
7:55 pm82 °FSunny.No wind58%29.90 "Hg10 mi
7:35 pm82 °FSunny.No wind58%29.90 "Hg10 mi
6:55 pm84 °FSunny.No wind51%29.88 "Hg10 mi
6:35 pm86 °FSunny.No wind49%29.89 "Hg10 mi
5:55 pm84 °FSunny.No wind51%29.88 "Hg10 mi
5:35 pm84 °FSunny.3 mph51%29.89 "Hg10 mi
5:15 pm84 °FSunny.No wind51%29.89 "Hg10 mi
4:55 pm84 °FScattered clouds.3 mph51%29.90 "Hg10 mi
4:35 pm84 °FSunny.No wind51%29.90 "Hg10 mi
4:15 pm84 °FScattered clouds.3 mph51%29.92 "Hg10 mi
3:35 pm82 °FScattered clouds.No wind55%29.94 "Hg10 mi
3:15 pm82 °FScattered clouds.3 mph58%29.94 "Hg10 mi
2:55 pm82 °FScattered clouds.No wind55%29.96 "Hg10 mi
2:35 pm82 °FScattered clouds.No wind62%29.96 "Hg10 mi
2:15 pm82 °FScattered clouds.No wind55%29.97 "Hg10 mi
1:55 pm81 °FScattered clouds.3 mph58%29.98 "Hg10 mi
1:35 pm81 °FScattered clouds.No wind66%29.98 "Hg10 mi
12:55 pm81 °FBroken clouds.No wind62%29.99 "Hg10 mi
12:15 pm79 °FMore clouds than sun.No wind65%30.00 "Hg10 mi
11:55 am77 °FMore clouds than sun.No wind74%30.00 "Hg10 mi
11:35 am77 °FCloudy.3 mph69%30.00 "Hg10 mi
11:15 am77 °FPartly sunny.3 mph74%29.99 "Hg10 mi
10:55 am77 °FBroken clouds.No wind74%29.99 "Hg10 mi
10:35 am75 °FPartly sunny.No wind78%29.99 "Hg10 mi
10:15 am73 °FCloudy.No wind83%29.99 "Hg10 mi
9:55 am73 °FMostly cloudy.3 mph83%29.99 "Hg10 mi
9:35 am73 °FMostly cloudy.No wind89%29.98 "Hg10 mi
8:55 am72 °FLow clouds.3 mph94%29.97 "Hg10 mi
8:35 am72 °FLow clouds.No wind94%29.96 "Hg10 mi
7:35 am70 °FSunny.5 mph100%29.94 "Hg10 mi
7:15 am70 °FSunny.3 mph94%29.94 "Hg7 mi
6:55 am70 °FSunny.No wind94%29.93 "Hg10 mi
6:35 am70 °FSunny.No wind94%29.92 "Hg10 mi
6:15 am70 °FClear.No wind94%29.91 "Hg10 mi
5:55 am68 °FClear.No wind100%29.90 "Hg10 mi
5:35 am68 °FClear.No wind100%29.90 "Hg10 mi
5:15 am68 °FClear.No wind100%29.90 "Hg7 mi
4:55 am70 °FClear.No wind94%29.90 "Hg10 mi
4:35 am70 °FClear.No wind94%29.90 "Hg10 mi
4:15 am70 °FClear.3 mph94%29.89 "Hg10 mi
3:55 am70 °FPassing clouds.3 mph94%29.89 "Hg7 mi
3:35 am70 °FPassing clouds.No wind94%29.90 "Hg7 mi
3:15 am70 °FPassing clouds.No wind94%29.90 "Hg10 mi
Weather by CustomWeather, © 2021

See weather overview